KOCH

Nacogdoches A L Mangham Jr Regional Airport

Nacogdoches, Texas, USA
METAR KOCH 211356Z AUTO 09003KT 10SM 23/21 A3005 RMK AO2 SLP179 T02280211 $
Observed Flight Rules
May-21 @ 13:56 UTC (45 minutes ago)
Wind Visibility
90° at 3 knots 10 miles
Temperatures Readings
Current 23°C / 73°F
Dewpoint 21°C / 70°F
Humidity 89%
Altimeter 30.05" Hg
Pressure 1017.9 hPa
Elevation 108
METAR KOCH 211356Z AUTO 09003KT 10SM 23/21 A3005 RMK AO2 SLP179 T02280211 $
Observed Flight Rules
May-21 @ 13:56 UTC
(45 minutes ago)
Wind Visibility
90° at 3 knots 10 miles
Temperature Dewpoint
23°C / 73°F 21°C / 70°F
Humidity Altimeter Pressure
89% 30.05" Hg 1017.9 hPa